Harrod, Ohio
Current Conditions -  °F | °C
As of 10:53 PM on Tuesday 21 Oct 2014 (Local Time) from KAOH Reporting Station
Overcast Overcast  
Wind Chill: 40°   Ceiling: 2000
Heat Index: 45°   Visibility: 10mi
Dew Point: 37°   Wind: 9mph
Humidity: 74%   Direction: 360°N
Pressure: 30.2"   Gusts: NA
Location:  40.71°N, 83.92°W
Report Text: KAOH 220253Z AUTO 36008KT 10SM OVC020 07/03 A3020 RMK AO2 SLP228 T00720028 51017
Loading
Personal Weather Stations






























Interactive Weather Map
Tropical Storm Tracking
New forecast layout! Learn more

10-Day Weather Forecast

Advertisements
Track Severe Weather on mobile